PWSweather.com
Personal Weather Stations
Station Observations
KNVELKO7
Elko, NV 89801

Elko, NV 89801

Lat: 40.963233, Lon: -115.592836

Elevation: 5230

Station Type: WS-2812

High Low Average
Temperature 103.7°F39.8°C 58.0°F14.4°C 80.2°F26.8°C
Dew Point 64.4°F18.0°C 44.0°F6.7°C 51.7°F10.9°C
Winds 20.5 mph 33.0 kmh Calm Calm 4.0 mph SSE6.4 kmh SSE
Wind Gusts 23.9 mph38.5 kmh -- 6.0 mph9.7 kmh
Humidity 72% 19% 41%
Pressure 30.20 in1022.7 mb 30.10 in1019.3 mb -
Precipitation 0.00 in0.0 mm - -
Hour Temp Dew Point Humidity Winds Wind Gusts Pressure Precip Precip Rate Daily Precip Total
12:02 AM 71.6°F22.0°C 53.0°F11.7°C 52% 1.6 mph N2.6 kmh N 4.7 mph7.6 kmh 30.20 in1022.7 mb 0.00 in0.0 mm 0.00 in0.0 mm 0.00 in0.0 mm
12:07 AM 71.5°F21.9°C 52.4°F11.3°C 51% 0.4 mph 0.6 kmh 2.9 mph4.7 kmh 30.20 in1022.7 mb 0.00 in0.0 mm 0.00 in0.0 mm 0.00 in0.0 mm
12:12 AM 71.3°F21.8°C 52.8°F11.6°C 52% 2.0 mph NW3.2 kmh NW 3.4 mph5.5 kmh 30.20 in1022.7 mb 0.00 in0.0 mm 0.00 in0.0 mm 0.00 in0.0 mm
12:17 AM 71.1°F21.7°C 52.6°F11.4°C 52% 3.7 mph NW6.0 kmh NW 4.0 mph6.4 kmh 30.20 in1022.7 mb 0.00 in0.0 mm 0.00 in0.0 mm 0.00 in0.0 mm
12:22 AM 70.9°F21.6°C 52.4°F11.3°C 52% 1.9 mph NNW3.1 kmh NNW 4.0 mph6.4 kmh 30.20 in1022.7 mb 0.00 in0.0 mm 0.00 in0.0 mm 0.00 in0.0 mm
12:27 AM 70.6°F21.4°C 52.0°F11.1°C 52% 3.5 mph NW5.6 kmh NW 4.0 mph6.4 kmh 30.20 in1022.7 mb 0.00 in0.0 mm 0.00 in0.0 mm 0.00 in0.0 mm
12:32 AM 70.2°F21.2°C 52.2°F11.2°C 53% 1.4 mph W2.3 kmh W 4.0 mph6.4 kmh 30.20 in1022.7 mb 0.00 in0.0 mm 0.00 in0.0 mm 0.00 in0.0 mm
12:37 AM 70.2°F21.2°C 52.2°F11.2°C 53% 0.6 mph W1.0 kmh W 3.8 mph6.1 kmh 30.19 in1022.4 mb 0.00 in0.0 mm 0.00 in0.0 mm 0.00 in0.0 mm
12:42 AM 70.0°F21.1°C 52.1°F11.2°C 53% 2.2 mph NNW3.5 kmh NNW 2.2 mph3.5 kmh 30.19 in1022.4 mb 0.00 in0.0 mm 0.00 in0.0 mm 0.00 in0.0 mm
12:47 AM 70.0°F21.1°C 52.6°F11.4°C 54% 3.0 mph NW4.8 kmh NW 3.1 mph5.0 kmh 30.19 in1022.4 mb 0.00 in0.0 mm 0.00 in0.0 mm 0.00 in0.0 mm
12:52 AM 69.8°F21.0°C 52.4°F11.3°C 54% 3.7 mph NW6.0 kmh NW 4.7 mph7.6 kmh 30.19 in1022.4 mb 0.00 in0.0 mm 0.00 in0.0 mm 0.00 in0.0 mm
12:56 AM 69.8°F21.0°C 52.4°F11.3°C 54% 0.2 mph NNW0.3 kmh NNW 4.7 mph7.6 kmh 30.19 in1022.4 mb 0.00 in0.0 mm 0.00 in0.0 mm 0.00 in0.0 mm
01:02 AM 69.7°F20.9°C 51.8°F11.0°C 53% 0.3 mph N0.5 kmh N 2.5 mph4.0 kmh 30.18 in1022.0 mb 0.00 in0.0 mm 0.00 in0.0 mm 0.00 in0.0 mm
01:07 AM 69.5°F20.8°C 51.6°F10.9°C 53% 1.1 mph N1.8 kmh N 1.3 mph2.1 kmh 30.18 in1022.0 mb 0.00 in0.0 mm 0.00 in0.0 mm 0.00 in0.0 mm
01:12 AM 69.3°F20.7°C 51.9°F11.1°C 54% 0.8 mph NNW1.3 kmh NNW 1.3 mph2.1 kmh 30.18 in1022.0 mb 0.00 in0.0 mm 0.00 in0.0 mm 0.00 in0.0 mm
01:17 AM 68.9°F20.5°C 51.6°F10.9°C 54% 0.6 mph WSW1.0 kmh WSW 0.9 mph1.4 kmh 30.18 in1022.0 mb 0.00 in0.0 mm 0.00 in0.0 mm 0.00 in0.0 mm
01:22 AM 68.6°F20.3°C 51.2°F10.7°C 54% Calm Calm 0.7 mph1.1 kmh 30.18 in1022.0 mb 0.00 in0.0 mm 0.00 in0.0 mm 0.00 in0.0 mm
01:27 AM 68.2°F20.1°C 51.8°F11.0°C 56% Calm Calm 1.8 mph2.9 kmh 30.18 in1022.0 mb 0.00 in0.0 mm 0.00 in0.0 mm 0.00 in0.0 mm
01:32 AM 68.0°F20.0°C 51.7°F10.9°C 56% 0.4 mph NW0.6 kmh NW 1.8 mph2.9 kmh 30.18 in1022.0 mb 0.00 in0.0 mm 0.00 in0.0 mm 0.00 in0.0 mm
01:37 AM 67.7°F19.8°C 51.4°F10.8°C 56% Calm Calm 1.3 mph2.1 kmh 30.18 in1022.0 mb 0.00 in0.0 mm 0.00 in0.0 mm 0.00 in0.0 mm
01:42 AM 67.5°F19.7°C 51.2°F10.7°C 56% Calm Calm -- 30.18 in1022.0 mb 0.00 in0.0 mm 0.00 in0.0 mm 0.00 in0.0 mm
01:47 AM 67.3°F19.6°C 51.6°F10.9°C 57% Calm Calm -- 30.18 in1022.0 mb 0.00 in0.0 mm 0.00 in0.0 mm 0.00 in0.0 mm
01:52 AM 67.1°F19.5°C 51.4°F10.8°C 57% Calm Calm -- 30.18 in1022.0 mb 0.00 in0.0 mm 0.00 in0.0 mm 0.00 in0.0 mm
01:57 AM 67.0°F19.4°C 51.2°F10.7°C 57% Calm Calm -- 30.18 in1022.0 mb 0.00 in0.0 mm 0.00 in0.0 mm 0.00 in0.0 mm
02:02 AM 66.8°F19.3°C 51.0°F10.6°C 57% 1.5 mph 2.4 kmh 2.0 mph3.2 kmh 30.17 in1021.7 mb 0.00 in0.0 mm 0.00 in0.0 mm 0.00 in0.0 mm
02:07 AM 66.6°F19.2°C 51.8°F11.0°C 59% 1.5 mph NE2.4 kmh NE 2.2 mph3.5 kmh 30.17 in1021.7 mb 0.00 in0.0 mm 0.00 in0.0 mm 0.00 in0.0 mm
02:12 AM 66.2°F19.0°C 51.0°F10.6°C 58% 1.5 mph NE2.4 kmh NE 2.2 mph3.5 kmh 30.17 in1021.7 mb 0.00 in0.0 mm 0.00 in0.0 mm 0.00 in0.0 mm
02:17 AM 66.1°F18.9°C 51.4°F10.8°C 59% 1.4 mph 2.3 kmh 2.9 mph4.7 kmh 30.17 in1021.7 mb 0.00 in0.0 mm 0.00 in0.0 mm 0.00 in0.0 mm
02:22 AM 65.9°F18.8°C 51.2°F10.7°C 59% 2.0 mph NNE3.2 kmh NNE 2.9 mph4.7 kmh 30.17 in1021.7 mb 0.00 in0.0 mm 0.00 in0.0 mm 0.00 in0.0 mm
02:27 AM 65.7°F18.7°C 51.5°F10.8°C 60% 0.4 mph NNE0.6 kmh NNE 2.5 mph4.0 kmh 30.17 in1021.7 mb 0.00 in0.0 mm 0.00 in0.0 mm 0.00 in0.0 mm
02:32 AM 65.5°F18.6°C 51.3°F10.7°C 60% 2.0 mph NNE3.2 kmh NNE 2.0 mph3.2 kmh 30.17 in1021.7 mb 0.00 in0.0 mm 0.00 in0.0 mm 0.00 in0.0 mm
02:37 AM 65.3°F18.5°C 51.1°F10.6°C 60% 1.5 mph S2.4 kmh S 2.0 mph3.2 kmh 30.17 in1021.7 mb 0.00 in0.0 mm 0.00 in0.0 mm 0.00 in0.0 mm
02:42 AM 64.8°F18.2°C 51.0°F10.6°C 61% Calm Calm 1.8 mph2.9 kmh 30.17 in1021.7 mb 0.00 in0.0 mm 0.00 in0.0 mm 0.00 in0.0 mm
02:47 AM 64.4°F18.0°C 51.1°F10.6°C 62% Calm Calm 1.8 mph2.9 kmh 30.17 in1021.7 mb 0.00 in0.0 mm 0.00 in0.0 mm 0.00 in0.0 mm
02:52 AM 64.1°F17.8°C 50.8°F10.4°C 62% 0.6 mph ESE1.0 kmh ESE 0.9 mph1.4 kmh 30.17 in1021.7 mb 0.00 in0.0 mm 0.00 in0.0 mm 0.00 in0.0 mm
02:57 AM 63.9°F17.7°C 50.6°F10.3°C 62% 0.4 mph ESE0.6 kmh ESE 1.8 mph2.9 kmh 30.17 in1021.7 mb 0.00 in0.0 mm 0.00 in0.0 mm 0.00 in0.0 mm
03:02 AM 63.7°F17.6°C 50.1°F10.1°C 61% 0.8 mph NNE1.3 kmh NNE 1.8 mph2.9 kmh 30.17 in1021.7 mb 0.00 in0.0 mm 0.00 in0.0 mm 0.00 in0.0 mm
03:07 AM 63.5°F17.5°C 50.2°F10.1°C 62% 1.1 mph NE1.8 kmh NE 1.3 mph2.1 kmh 30.16 in1021.3 mb 0.00 in0.0 mm 0.00 in0.0 mm 0.00 in0.0 mm
03:12 AM 63.2°F17.3°C 50.0°F10.0°C 62% 0.2 mph NNE0.3 kmh NNE 1.3 mph2.1 kmh 30.16 in1021.3 mb 0.00 in0.0 mm 0.00 in0.0 mm 0.00 in0.0 mm
03:17 AM 63.0°F17.2°C 49.3°F9.6°C 61% 0.8 mph SW1.3 kmh SW 1.8 mph2.9 kmh 30.17 in1021.7 mb 0.00 in0.0 mm 0.00 in0.0 mm 0.00 in0.0 mm
03:22 AM 62.5°F16.9°C 49.2°F9.6°C 62% 2.0 mph NNW3.2 kmh NNW 2.7 mph4.3 kmh 30.17 in1021.7 mb 0.00 in0.0 mm 0.00 in0.0 mm 0.00 in0.0 mm
03:27 AM 61.9°F16.6°C 48.8°F9.3°C 62% Calm Calm 2.7 mph4.3 kmh 30.17 in1021.7 mb 0.00 in0.0 mm 0.00 in0.0 mm 0.00 in0.0 mm
03:32 AM 61.6°F16.4°C 48.4°F9.1°C 62% Calm Calm 1.3 mph2.1 kmh 30.17 in1021.7 mb 0.00 in0.0 mm 0.00 in0.0 mm 0.00 in0.0 mm
03:37 AM 61.2°F16.2°C 48.2°F9.0°C 62% Calm Calm 1.3 mph2.1 kmh 30.17 in1021.7 mb 0.00 in0.0 mm 0.00 in0.0 mm 0.00 in0.0 mm
03:42 AM 61.0°F16.1°C 48.4°F9.1°C 63% Calm Calm 1.3 mph2.1 kmh 30.17 in1021.7 mb 0.00 in0.0 mm 0.00 in0.0 mm 0.00 in0.0 mm
03:47 AM 60.8°F16.0°C 48.3°F9.1°C 63% Calm Calm -- 30.17 in1021.7 mb 0.00 in0.0 mm 0.00 in0.0 mm 0.00 in0.0 mm
03:52 AM 60.8°F16.0°C 48.6°F9.2°C 64% 0.2 mph NNW0.3 kmh NNW 0.2 mph0.3 kmh 30.17 in1021.7 mb 0.00 in0.0 mm 0.00 in0.0 mm 0.00 in0.0 mm
03:57 AM 60.7°F15.9°C 48.1°F8.9°C 63% 0.6 mph NE1.0 kmh NE 1.8 mph2.9 kmh 30.17 in1021.7 mb 0.00 in0.0 mm 0.00 in0.0 mm 0.00 in0.0 mm
04:03 AM 60.8°F16.0°C 48.6°F9.2°C 64% 1.7 mph N2.7 kmh N 3.4 mph5.5 kmh 30.17 in1021.7 mb 0.00 in0.0 mm 0.00 in0.0 mm 0.00 in0.0 mm
04:08 AM 60.8°F16.0°C 49.1°F9.5°C 65% 3.9 mph 6.3 kmh 4.3 mph6.9 kmh 30.17 in1021.7 mb 0.00 in0.0 mm 0.00 in0.0 mm 0.00 in0.0 mm
04:12 AM 61.0°F16.1°C 49.2°F9.6°C 65% 3.9 mph NE6.3 kmh NE 4.3 mph6.9 kmh 30.17 in1021.7 mb 0.00 in0.0 mm 0.00 in0.0 mm 0.00 in0.0 mm
04:17 AM 61.0°F16.1°C 49.2°F9.6°C 65% 0.8 mph ENE1.3 kmh ENE 4.3 mph6.9 kmh 30.17 in1021.7 mb 0.00 in0.0 mm 0.00 in0.0 mm 0.00 in0.0 mm
04:22 AM 60.8°F16.0°C 49.1°F9.5°C 65% Calm Calm 2.7 mph4.3 kmh 30.17 in1021.7 mb 0.00 in0.0 mm 0.00 in0.0 mm 0.00 in0.0 mm
04:27 AM 60.7°F15.9°C 48.9°F9.4°C 65% 0.4 mph W0.6 kmh W 0.4 mph0.6 kmh 30.17 in1021.7 mb 0.00 in0.0 mm 0.00 in0.0 mm 0.00 in0.0 mm
04:32 AM 60.1°F15.6°C 48.3°F9.1°C 65% Calm Calm 0.4 mph0.6 kmh 30.17 in1021.7 mb 0.00 in0.0 mm 0.00 in0.0 mm 0.00 in0.0 mm
04:37 AM 59.8°F15.4°C 47.5°F8.6°C 64% Calm Calm 0.2 mph0.3 kmh 30.17 in1021.7 mb 0.00 in0.0 mm 0.00 in0.0 mm 0.00 in0.0 mm
04:42 AM 59.4°F15.2°C 47.2°F8.4°C 64% Calm Calm -- 30.17 in1021.7 mb 0.00 in0.0 mm 0.00 in0.0 mm 0.00 in0.0 mm
04:47 AM 59.2°F15.1°C 47.4°F8.6°C 65% Calm Calm -- 30.17 in1021.7 mb 0.00 in0.0 mm 0.00 in0.0 mm 0.00 in0.0 mm
04:52 AM 58.9°F14.9°C 47.1°F8.4°C 65% Calm Calm -- 30.17 in1021.7 mb 0.00 in0.0 mm 0.00 in0.0 mm 0.00 in0.0 mm
04:57 AM 58.7°F14.8°C 46.9°F8.3°C 65% Calm Calm -- 30.17 in1021.7 mb 0.00 in0.0 mm 0.00 in0.0 mm 0.00 in0.0 mm
05:03 AM 58.7°F14.8°C 47.4°F8.6°C 66% Calm Calm -- 30.17 in1021.7 mb 0.00 in0.0 mm 0.00 in0.0 mm 0.00 in0.0 mm
05:08 AM 58.7°F14.8°C 47.4°F8.6°C 66% 0.2 mph NNW0.3 kmh NNW 0.2 mph0.3 kmh 30.18 in1022.0 mb 0.00 in0.0 mm 0.00 in0.0 mm 0.00 in0.0 mm
05:13 AM 58.3°F14.6°C 46.5°F8.1°C 65% 1.1 mph NNE1.8 kmh NNE 1.1 mph1.8 kmh 30.18 in1022.0 mb 0.00 in0.0 mm 0.00 in0.0 mm 0.00 in0.0 mm
05:18 AM 58.3°F14.6°C 47.3°F8.5°C 67% 2.3 mph NE3.7 kmh NE 2.5 mph4.0 kmh 30.18 in1022.0 mb 0.00 in0.0 mm 0.00 in0.0 mm 0.00 in0.0 mm
05:23 AM 58.5°F14.7°C 48.0°F8.9°C 68% 0.6 mph ENE1.0 kmh ENE 2.5 mph4.0 kmh 30.18 in1022.0 mb 0.00 in0.0 mm 0.00 in0.0 mm 0.00 in0.0 mm
05:28 AM 58.3°F14.6°C 47.8°F8.8°C 68% 2.8 mph NE4.5 kmh NE 3.4 mph5.5 kmh 30.18 in1022.0 mb 0.00 in0.0 mm 0.00 in0.0 mm 0.00 in0.0 mm
05:32 AM 58.1°F14.5°C 48.0°F8.9°C 69% 2.3 mph NE3.7 kmh NE 3.4 mph5.5 kmh 30.18 in1022.0 mb 0.00 in0.0 mm 0.00 in0.0 mm 0.00 in0.0 mm
05:37 AM 58.1°F14.5°C 48.0°F8.9°C 69% 1.4 mph SSW2.3 kmh SSW 2.7 mph4.3 kmh 30.18 in1022.0 mb 0.00 in0.0 mm 0.00 in0.0 mm 0.00 in0.0 mm
05:42 AM 58.0°F14.4°C 48.2°F9.0°C 70% 0.8 mph SE1.3 kmh SE 2.0 mph3.2 kmh 30.18 in1022.0 mb 0.00 in0.0 mm 0.00 in0.0 mm 0.00 in0.0 mm
05:47 AM 58.0°F14.4°C 47.9°F8.8°C 69% 0.4 mph NNE0.6 kmh NNE 2.0 mph3.2 kmh 30.18 in1022.0 mb 0.00 in0.0 mm 0.00 in0.0 mm 0.00 in0.0 mm
05:52 AM 58.0°F14.4°C 48.6°F9.2°C 71% Calm Calm 1.6 mph2.6 kmh 30.18 in1022.0 mb 0.00 in0.0 mm 0.00 in0.0 mm 0.00 in0.0 mm
05:57 AM 58.5°F14.7°C 49.5°F9.7°C 72% Calm Calm -- 30.18 in1022.0 mb 0.00 in0.0 mm 0.00 in0.0 mm 0.00 in0.0 mm
06:03 AM 59.0°F15.0°C 49.7°F9.8°C 71% 0.2 mph 0.3 kmh 0.2 mph0.3 kmh 30.18 in1022.0 mb 0.00 in0.0 mm 0.00 in0.0 mm 0.00 in0.0 mm
06:08 AM 59.4°F15.2°C 50.0°F10.0°C 71% Calm Calm 0.2 mph0.3 kmh 30.19 in1022.4 mb 0.00 in0.0 mm 0.00 in0.0 mm 0.00 in0.0 mm
06:13 AM 59.8°F15.4°C 50.0°F10.0°C 70% 0.2 mph 0.3 kmh 0.2 mph0.3 kmh 30.19 in1022.4 mb 0.00 in0.0 mm 0.00 in0.0 mm 0.00 in0.0 mm
06:18 AM 59.9°F15.5°C 49.8°F9.9°C 69% Calm Calm 0.2 mph0.3 kmh 30.19 in1022.4 mb 0.00 in0.0 mm 0.00 in0.0 mm 0.00 in0.0 mm
06:23 AM 59.9°F15.5°C 49.8°F9.9°C 69% 1.0 mph NE1.6 kmh NE 1.8 mph2.9 kmh 30.19 in1022.4 mb 0.00 in0.0 mm 0.00 in0.0 mm 0.00 in0.0 mm
06:28 AM 60.3°F15.7°C 50.1°F10.1°C 69% 1.4 mph NE2.3 kmh NE 1.8 mph2.9 kmh 30.19 in1022.4 mb 0.00 in0.0 mm 0.00 in0.0 mm 0.00 in0.0 mm
06:33 AM 60.8°F16.0°C 50.7°F10.4°C 69% 0.3 mph NE0.5 kmh NE 1.6 mph2.6 kmh 30.19 in1022.4 mb 0.00 in0.0 mm 0.00 in0.0 mm 0.00 in0.0 mm
06:38 AM 61.4°F16.3°C 51.6°F10.9°C 70% 0.2 mph ENE0.3 kmh ENE 1.1 mph1.8 kmh 30.19 in1022.4 mb 0.00 in0.0 mm 0.00 in0.0 mm 0.00 in0.0 mm
06:43 AM 62.3°F16.8°C 52.7°F11.5°C 71% 0.9 mph ENE1.4 kmh ENE 1.6 mph2.6 kmh 30.20 in1022.7 mb 0.00 in0.0 mm 0.00 in0.0 mm 0.00 in0.0 mm
06:48 AM 63.0°F17.2°C 53.1°F11.7°C 70% 0.5 mph E0.8 kmh E 1.6 mph2.6 kmh 30.19 in1022.4 mb 0.00 in0.0 mm 0.00 in0.0 mm 0.00 in0.0 mm
06:52 AM 63.9°F17.7°C 54.0°F12.2°C 70% 0.3 mph ESE0.5 kmh ESE 1.1 mph1.8 kmh 30.19 in1022.4 mb 0.00 in0.0 mm 0.00 in0.0 mm 0.00 in0.0 mm
06:57 AM 65.0°F18.3°C 55.4°F13.0°C 71% 0.2 mph ESE0.3 kmh ESE 1.1 mph1.8 kmh 30.19 in1022.4 mb 0.00 in0.0 mm 0.00 in0.0 mm 0.00 in0.0 mm
07:03 AM 66.1°F18.9°C 56.0°F13.3°C 70% 0.2 mph ESE0.3 kmh ESE 0.9 mph1.4 kmh 30.19 in1022.4 mb 0.00 in0.0 mm 0.00 in0.0 mm 0.00 in0.0 mm
07:08 AM 67.1°F19.5°C 56.6°F13.7°C 69% 0.6 mph ESE1.0 kmh ESE 1.1 mph1.8 kmh 30.19 in1022.4 mb 0.00 in0.0 mm 0.00 in0.0 mm 0.00 in0.0 mm
07:13 AM 68.2°F20.1°C 57.2°F14.0°C 68% 0.4 mph ESE0.6 kmh ESE 1.1 mph1.8 kmh 30.19 in1022.4 mb 0.00 in0.0 mm 0.00 in0.0 mm 0.00 in0.0 mm
07:18 AM 69.3°F20.7°C 57.9°F14.4°C 67% 0.2 mph SE0.3 kmh SE 0.7 mph1.1 kmh 30.19 in1022.4 mb 0.00 in0.0 mm 0.00 in0.0 mm 0.00 in0.0 mm
07:23 AM 70.2°F21.2°C 58.2°F14.6°C 66% Calm Calm 0.4 mph0.6 kmh 30.19 in1022.4 mb 0.00 in0.0 mm 0.00 in0.0 mm 0.00 in0.0 mm
07:28 AM 71.1°F21.7°C 58.7°F14.8°C 65% 0.7 mph ESE1.1 kmh ESE 0.7 mph1.1 kmh 30.19 in1022.4 mb 0.00 in0.0 mm 0.00 in0.0 mm 0.00 in0.0 mm
07:33 AM 71.6°F22.0°C 58.8°F14.9°C 64% 1.1 mph ESE1.8 kmh ESE 1.1 mph1.8 kmh 30.19 in1022.4 mb 0.00 in0.0 mm 0.00 in0.0 mm 0.00 in0.0 mm
07:38 AM 72.4°F22.4°C 59.1°F15.1°C 63% 0.4 mph NNE0.6 kmh NNE 1.1 mph1.8 kmh 30.19 in1022.4 mb 0.00 in0.0 mm 0.00 in0.0 mm 0.00 in0.0 mm
07:43 AM 73.1°F22.8°C 59.2°F15.1°C 62% 0.4 mph ENE0.6 kmh ENE 1.8 mph2.9 kmh 30.19 in1022.4 mb 0.00 in0.0 mm 0.00 in0.0 mm 0.00 in0.0 mm
07:48 AM 73.8°F23.2°C 58.5°F14.7°C 59% 0.8 mph ENE1.3 kmh ENE 1.8 mph2.9 kmh 30.19 in1022.4 mb 0.00 in0.0 mm 0.00 in0.0 mm 0.00 in0.0 mm
07:53 AM 74.7°F23.7°C 59.4°F15.2°C 59% 1.0 mph ESE1.6 kmh ESE 1.8 mph2.9 kmh 30.19 in1022.4 mb 0.00 in0.0 mm 0.00 in0.0 mm 0.00 in0.0 mm
07:58 AM 75.2°F24.0°C 59.0°F15.0°C 57% 1.1 mph E1.8 kmh E 2.2 mph3.5 kmh 30.19 in1022.4 mb 0.00 in0.0 mm 0.00 in0.0 mm 0.00 in0.0 mm
08:03 AM 75.6°F24.2°C 58.8°F14.9°C 56% 1.0 mph ESE1.6 kmh ESE 2.2 mph3.5 kmh 30.19 in1022.4 mb 0.00 in0.0 mm 0.00 in0.0 mm 0.00 in0.0 mm
08:08 AM 76.0°F24.4°C 58.2°F14.6°C 54% 2.8 mph ENE4.5 kmh ENE 3.4 mph5.5 kmh 30.19 in1022.4 mb 0.00 in0.0 mm 0.00 in0.0 mm 0.00 in0.0 mm
08:13 AM 76.7°F24.8°C 58.2°F14.6°C 53% 1.0 mph E1.6 kmh E 3.4 mph5.5 kmh 30.19 in1022.4 mb 0.00 in0.0 mm 0.00 in0.0 mm 0.00 in0.0 mm
08:18 AM 77.0°F25.0°C 58.1°F14.5°C 52% 1.2 mph NE1.9 kmh NE 3.4 mph5.5 kmh 30.19 in1022.4 mb 0.00 in0.0 mm 0.00 in0.0 mm 0.00 in0.0 mm
08:23 AM 77.8°F25.4°C 58.8°F14.9°C 52% 1.5 mph E2.4 kmh E 4.0 mph6.4 kmh 30.19 in1022.4 mb 0.00 in0.0 mm 0.00 in0.0 mm 0.00 in0.0 mm
08:28 AM 78.7°F25.9°C 59.1°F15.1°C 51% 0.9 mph ESE1.4 kmh ESE 4.0 mph6.4 kmh 30.19 in1022.4 mb 0.00 in0.0 mm 0.00 in0.0 mm 0.00 in0.0 mm
08:33 AM 79.6°F26.4°C 59.3°F15.2°C 50% 3.6 mph NE5.8 kmh NE 4.5 mph7.2 kmh 30.19 in1022.4 mb 0.00 in0.0 mm 0.00 in0.0 mm 0.00 in0.0 mm
08:38 AM 80.3°F26.8°C 59.9°F15.5°C 50% 0.7 mph S1.1 kmh S 4.5 mph7.2 kmh 30.19 in1022.4 mb 0.00 in0.0 mm 0.00 in0.0 mm 0.00 in0.0 mm
08:43 AM 81.2°F27.3°C 59.6°F15.3°C 48% 2.1 mph E3.4 kmh E 3.8 mph6.1 kmh 30.19 in1022.4 mb 0.00 in0.0 mm 0.00 in0.0 mm 0.00 in0.0 mm
08:48 AM 81.9°F27.7°C 59.6°F15.3°C 47% 1.8 mph ENE2.9 kmh ENE 3.8 mph6.1 kmh 30.19 in1022.4 mb 0.00 in0.0 mm 0.00 in0.0 mm 0.00 in0.0 mm
08:53 AM 82.4°F28.0°C 59.5°F15.3°C 46% 0.6 mph NE1.0 kmh NE 2.5 mph4.0 kmh 30.19 in1022.4 mb 0.00 in0.0 mm 0.00 in0.0 mm 0.00 in0.0 mm
08:58 AM 83.0°F28.3°C 58.8°F14.9°C 44% 1.1 mph ESE1.8 kmh ESE 4.5 mph7.2 kmh 30.19 in1022.4 mb 0.00 in0.0 mm 0.00 in0.0 mm 0.00 in0.0 mm
09:03 AM 83.2°F28.4°C 58.3°F14.6°C 43% 0.9 mph NE1.4 kmh NE 4.5 mph7.2 kmh 30.19 in1022.4 mb 0.00 in0.0 mm 0.00 in0.0 mm 0.00 in0.0 mm
09:08 AM 83.7°F28.7°C 58.8°F14.9°C 43% 0.4 mph ESE0.6 kmh ESE 3.4 mph5.5 kmh 30.18 in1022.0 mb 0.00 in0.0 mm 0.00 in0.0 mm 0.00 in0.0 mm
09:13 AM 84.6°F29.2°C 59.7°F15.4°C 43% 0.4 mph NNE0.6 kmh NNE 2.9 mph4.7 kmh 30.18 in1022.0 mb 0.00 in0.0 mm 0.00 in0.0 mm 0.00 in0.0 mm
09:18 AM 84.8°F29.3°C 58.5°F14.7°C 41% 3.1 mph N5.0 kmh N 4.0 mph6.4 kmh 30.18 in1022.0 mb 0.00 in0.0 mm 0.00 in0.0 mm 0.00 in0.0 mm
09:23 AM 84.8°F29.3°C 57.9°F14.4°C 40% 2.1 mph NNW3.4 kmh NNW 4.0 mph6.4 kmh 30.18 in1022.0 mb 0.00 in0.0 mm 0.00 in0.0 mm 0.00 in0.0 mm
09:28 AM 85.3°F29.6°C 59.1°F15.1°C 41% 0.8 mph SSE1.3 kmh SSE 3.4 mph5.5 kmh 30.18 in1022.0 mb 0.00 in0.0 mm 0.00 in0.0 mm 0.00 in0.0 mm
09:33 AM 86.9°F30.5°C 61.1°F16.2°C 42% 0.9 mph ESE1.4 kmh ESE 1.8 mph2.9 kmh 30.18 in1022.0 mb 0.00 in0.0 mm 0.00 in0.0 mm 0.00 in0.0 mm
09:38 AM 88.9°F31.6°C 63.5°F17.5°C 43% 3.3 mph SE5.3 kmh SE 4.0 mph6.4 kmh 30.18 in1022.0 mb 0.00 in0.0 mm 0.00 in0.0 mm 0.00 in0.0 mm
09:43 AM 90.0°F32.2°C 63.1°F17.3°C 41% 1.8 mph E2.9 kmh E 4.0 mph6.4 kmh 30.18 in1022.0 mb 0.00 in0.0 mm 0.00 in0.0 mm 0.00 in0.0 mm
09:48 AM 90.4°F32.4°C 62.7°F17.1°C 40% 1.4 mph E2.3 kmh E 2.7 mph4.3 kmh 30.17 in1021.7 mb 0.00 in0.0 mm 0.00 in0.0 mm 0.00 in0.0 mm
09:53 AM 90.9°F32.7°C 63.9°F17.7°C 41% 1.7 mph SSE2.7 kmh SSE 5.1 mph8.2 kmh 30.17 in1021.7 mb 0.00 in0.0 mm 0.00 in0.0 mm 0.00 in0.0 mm
09:58 AM 92.2°F33.4°C 64.4°F18.0°C 40% 1.6 mph SE2.6 kmh SE 5.1 mph8.2 kmh 30.17 in1021.7 mb 0.00 in0.0 mm 0.00 in0.0 mm 0.00 in0.0 mm
10:03 AM 92.9°F33.8°C 64.2°F17.9°C 39% 1.5 mph SSW2.4 kmh SSW 3.6 mph5.8 kmh 30.17 in1021.7 mb 0.00 in0.0 mm 0.00 in0.0 mm 0.00 in0.0 mm
10:08 AM 93.1°F33.9°C 61.9°F16.6°C 36% 1.1 mph SW1.8 kmh SW 3.6 mph5.8 kmh 30.18 in1022.0 mb 0.00 in0.0 mm 0.00 in0.0 mm 0.00 in0.0 mm
10:13 AM 93.4°F34.1°C 61.5°F16.4°C 35% 1.0 mph ENE1.6 kmh ENE 3.4 mph5.5 kmh 30.17 in1021.7 mb 0.00 in0.0 mm 0.00 in0.0 mm 0.00 in0.0 mm
10:18 AM 93.8°F34.3°C 61.7°F16.5°C 35% 0.6 mph S1.0 kmh S 3.6 mph5.8 kmh 30.17 in1021.7 mb 0.00 in0.0 mm 0.00 in0.0 mm 0.00 in0.0 mm
10:23 AM 93.2°F34.0°C 59.7°F15.4°C 33% 0.2 mph WNW0.3 kmh WNW 3.6 mph5.8 kmh 30.18 in1022.0 mb 0.00 in0.0 mm 0.00 in0.0 mm 0.00 in0.0 mm
10:28 AM 93.1°F33.9°C 60.3°F15.7°C 34% 0.7 mph ESE1.1 kmh ESE 4.0 mph6.4 kmh 30.17 in1021.7 mb 0.00 in0.0 mm 0.00 in0.0 mm 0.00 in0.0 mm
10:33 AM 93.4°F34.1°C 60.7°F15.9°C 34% 0.3 mph S0.5 kmh S 4.0 mph6.4 kmh 30.17 in1021.7 mb 0.00 in0.0 mm 0.00 in0.0 mm 0.00 in0.0 mm
10:38 AM 94.0°F34.4°C 60.3°F15.7°C 33% 0.4 mph W0.6 kmh W 1.8 mph2.9 kmh 30.17 in1021.7 mb 0.00 in0.0 mm 0.00 in0.0 mm 0.00 in0.0 mm
10:43 AM 94.5°F34.7°C 62.5°F16.9°C 35% 1.9 mph S3.1 kmh S 2.2 mph3.5 kmh 30.17 in1021.7 mb 0.00 in0.0 mm 0.00 in0.0 mm 0.00 in0.0 mm
10:48 AM 94.7°F34.8°C 60.9°F16.1°C 33% 4.0 mph WSW6.4 kmh WSW 4.9 mph7.9 kmh 30.17 in1021.7 mb 0.00 in0.0 mm 0.00 in0.0 mm 0.00 in0.0 mm
10:53 AM 94.5°F34.7°C 61.7°F16.5°C 34% 3.3 mph S5.3 kmh S 4.9 mph7.9 kmh 30.17 in1021.7 mb 0.00 in0.0 mm 0.00 in0.0 mm 0.00 in0.0 mm
10:58 AM 94.7°F34.8°C 60.9°F16.1°C 33% 4.2 mph S6.8 kmh S 5.4 mph8.7 kmh 30.17 in1021.7 mb 0.00 in0.0 mm 0.00 in0.0 mm 0.00 in0.0 mm
11:04 AM 95.0°F35.0°C 59.7°F15.4°C 31% 3.2 mph W5.1 kmh W 5.4 mph8.7 kmh 30.17 in1021.7 mb 0.00 in0.0 mm 0.00 in0.0 mm 0.00 in0.0 mm
11:09 AM 95.0°F35.0°C 61.3°F16.3°C 33% 5.3 mph SW8.5 kmh SW 6.0 mph9.7 kmh 30.17 in1021.7 mb 0.00 in0.0 mm 0.00 in0.0 mm 0.00 in0.0 mm
11:14 AM 95.2°F35.1°C 60.7°F15.9°C 32% 0.6 mph SW1.0 kmh SW 6.0 mph9.7 kmh 30.17 in1021.7 mb 0.00 in0.0 mm 0.00 in0.0 mm 0.00 in0.0 mm
11:19 AM 95.9°F35.5°C 61.2°F16.2°C 32% 1.6 mph SW2.6 kmh SW 5.4 mph8.7 kmh 30.17 in1021.7 mb 0.00 in0.0 mm 0.00 in0.0 mm 0.00 in0.0 mm
11:24 AM 95.6°F35.3°C 59.3°F15.2°C 30% 2.9 mph WNW4.7 kmh WNW 5.4 mph8.7 kmh 30.17 in1021.7 mb 0.00 in0.0 mm 0.00 in0.0 mm 0.00 in0.0 mm
11:29 AM 94.7°F34.8°C 58.5°F14.7°C 30% 0.3 mph WSW0.5 kmh WSW 4.7 mph7.6 kmh 30.17 in1021.7 mb 0.00 in0.0 mm 0.00 in0.0 mm 0.00 in0.0 mm
11:34 AM 95.0°F35.0°C 57.8°F14.3°C 29% 3.8 mph W6.1 kmh W 5.6 mph9.0 kmh 30.17 in1021.7 mb 0.00 in0.0 mm 0.00 in0.0 mm 0.00 in0.0 mm
11:39 AM 95.4°F35.2°C 58.1°F14.5°C 29% 2.3 mph N3.7 kmh N 5.6 mph9.0 kmh 30.17 in1021.7 mb 0.00 in0.0 mm 0.00 in0.0 mm 0.00 in0.0 mm
11:43 AM 95.6°F35.3°C 56.0°F13.3°C 27% 4.2 mph N6.8 kmh N 5.8 mph9.3 kmh 30.17 in1021.7 mb 0.00 in0.0 mm 0.00 in0.0 mm 0.00 in0.0 mm
11:48 AM 95.8°F35.4°C 56.1°F13.4°C 27% 3.3 mph NE5.3 kmh NE 5.8 mph9.3 kmh 30.16 in1021.3 mb 0.00 in0.0 mm 0.00 in0.0 mm 0.00 in0.0 mm
11:53 AM 96.3°F35.7°C 57.7°F14.3°C 28% 0.4 mph ENE0.6 kmh ENE 4.0 mph6.4 kmh 30.16 in1021.3 mb 0.00 in0.0 mm 0.00 in0.0 mm 0.00 in0.0 mm
11:58 AM 97.2°F36.2°C 56.3°F13.5°C 26% 2.1 mph E3.4 kmh E 3.1 mph5.0 kmh 30.16 in1021.3 mb 0.00 in0.0 mm 0.00 in0.0 mm 0.00 in0.0 mm
12:04 PM 97.9°F36.6°C 58.0°F14.4°C 27% 1.1 mph ESE1.8 kmh ESE 4.9 mph7.9 kmh 30.16 in1021.3 mb 0.00 in0.0 mm 0.00 in0.0 mm 0.00 in0.0 mm
12:09 PM 99.4°F37.4°C 61.5°F16.4°C 29% 5.5 mph S8.9 kmh S 7.4 mph11.9 kmh 30.16 in1021.3 mb 0.00 in0.0 mm 0.00 in0.0 mm 0.00 in0.0 mm
12:14 PM 99.9°F37.7°C 59.7°F15.4°C 27% 1.9 mph WSW3.1 kmh WSW 7.4 mph11.9 kmh 30.16 in1021.3 mb 0.00 in0.0 mm 0.00 in0.0 mm 0.00 in0.0 mm
12:19 PM 99.5°F37.5°C 59.3°F15.2°C 27% 4.2 mph SW6.8 kmh SW 5.4 mph8.7 kmh 30.15 in1021.0 mb 0.00 in0.0 mm 0.00 in0.0 mm 0.00 in0.0 mm
12:24 PM 100.1°F37.8°C 62.1°F16.7°C 29% 2.5 mph SSE4.0 kmh SSE 4.9 mph7.9 kmh 30.15 in1021.0 mb 0.00 in0.0 mm 0.00 in0.0 mm 0.00 in0.0 mm
12:29 PM 101.2°F38.4°C 60.8°F16.0°C 27% 0.4 mph WSW0.6 kmh WSW 4.5 mph7.2 kmh 30.15 in1021.0 mb 0.00 in0.0 mm 0.00 in0.0 mm 0.00 in0.0 mm
12:34 PM 101.7°F38.7°C 61.1°F16.2°C 27% 3.3 mph SW5.3 kmh SW 4.5 mph7.2 kmh 30.15 in1021.0 mb 0.00 in0.0 mm 0.00 in0.0 mm 0.00 in0.0 mm
12:39 PM 101.5°F38.6°C 58.8°F14.9°C 25% 6.0 mph SW9.7 kmh SW 6.9 mph11.1 kmh 30.15 in1021.0 mb 0.00 in0.0 mm 0.00 in0.0 mm 0.00 in0.0 mm
12:44 PM 101.2°F38.4°C 57.3°F14.1°C 24% 3.1 mph WSW5.0 kmh WSW 6.9 mph11.1 kmh 30.15 in1021.0 mb 0.00 in0.0 mm 0.00 in0.0 mm 0.00 in0.0 mm
12:49 PM 101.3°F38.5°C 59.8°F15.4°C 26% 5.7 mph SE9.2 kmh SE 8.5 mph13.7 kmh 30.15 in1021.0 mb 0.00 in0.0 mm 0.00 in0.0 mm 0.00 in0.0 mm
12:54 PM 102.2°F39.0°C 60.5°F15.8°C 26% 4.2 mph SSW6.8 kmh SSW 8.5 mph13.7 kmh 30.14 in1020.7 mb 0.00 in0.0 mm 0.00 in0.0 mm 0.00 in0.0 mm
12:59 PM 103.1°F39.5°C 61.2°F16.2°C 26% 4.9 mph SSE7.9 kmh SSE 7.8 mph12.6 kmh 30.14 in1020.7 mb 0.00 in0.0 mm 0.00 in0.0 mm 0.00 in0.0 mm
01:04 PM 103.7°F39.8°C 60.6°F15.9°C 25% 1.9 mph S3.1 kmh S 7.8 mph12.6 kmh 30.14 in1020.7 mb 0.00 in0.0 mm 0.00 in0.0 mm 0.00 in0.0 mm
01:09 PM 103.1°F39.5°C 57.8°F14.3°C 23% 1.6 mph ENE2.6 kmh ENE 7.2 mph11.6 kmh 30.14 in1020.7 mb 0.00 in0.0 mm 0.00 in0.0 mm 0.00 in0.0 mm
01:14 PM 103.0°F39.4°C 58.8°F14.9°C 24% 2.9 mph SE4.7 kmh SE 7.2 mph11.6 kmh 30.13 in1020.3 mb 0.00 in0.0 mm 0.00 in0.0 mm 0.00 in0.0 mm
01:19 PM 102.8°F39.3°C 58.6°F14.8°C 24% 3.3 mph SE5.3 kmh SE 9.2 mph14.8 kmh 30.13 in1020.3 mb 0.00 in0.0 mm 0.00 in0.0 mm 0.00 in0.0 mm
01:24 PM 102.4°F39.1°C 57.2°F14.0°C 23% 3.5 mph NE5.6 kmh NE 9.2 mph14.8 kmh 30.13 in1020.3 mb 0.00 in0.0 mm 0.00 in0.0 mm 0.00 in0.0 mm
01:29 PM 101.2°F38.4°C 53.9°F12.2°C 21% 4.2 mph WSW6.8 kmh WSW 6.5 mph10.5 kmh 30.13 in1020.3 mb 0.00 in0.0 mm 0.00 in0.0 mm 0.00 in0.0 mm
01:34 PM 100.3°F37.9°C 55.4°F13.0°C 23% 2.5 mph SSW4.0 kmh SSW 5.4 mph8.7 kmh 30.13 in1020.3 mb 0.00 in0.0 mm 0.00 in0.0 mm 0.00 in0.0 mm
01:39 PM 100.3°F37.9°C 55.4°F13.0°C 23% 5.4 mph WSW8.7 kmh WSW 6.9 mph11.1 kmh 30.13 in1020.3 mb 0.00 in0.0 mm 0.00 in0.0 mm 0.00 in0.0 mm
01:44 PM 99.5°F37.5°C 54.8°F12.7°C 23% 3.5 mph SW5.6 kmh SW 6.9 mph11.1 kmh 30.13 in1020.3 mb 0.00 in0.0 mm 0.00 in0.0 mm 0.00 in0.0 mm
01:49 PM 98.3°F36.8°C 52.8°F11.6°C 22% 4.4 mph SW7.1 kmh SW 7.6 mph12.2 kmh 30.13 in1020.3 mb 0.00 in0.0 mm 0.00 in0.0 mm 0.00 in0.0 mm
01:54 PM 97.9°F36.6°C 53.6°F12.0°C 23% 4.0 mph WSW6.4 kmh WSW 7.6 mph12.2 kmh 30.13 in1020.3 mb 0.00 in0.0 mm 0.00 in0.0 mm 0.00 in0.0 mm
01:59 PM 97.7°F36.5°C 53.4°F11.9°C 23% 1.3 mph SW2.1 kmh SW 5.1 mph8.2 kmh 30.13 in1020.3 mb 0.00 in0.0 mm 0.00 in0.0 mm 0.00 in0.0 mm
02:04 PM 98.1°F36.7°C 52.6°F11.4°C 22% 9.0 mph WSW14.5 kmh WSW 9.4 mph15.1 kmh 30.13 in1020.3 mb 0.00 in0.0 mm 0.00 in0.0 mm 0.00 in0.0 mm
02:09 PM 96.1°F35.6°C 52.0°F11.1°C 23% 12.5 mph W20.1 kmh W 14.5 mph23.3 kmh 30.13 in1020.3 mb 0.00 in0.0 mm 0.00 in0.0 mm 0.00 in0.0 mm
02:14 PM 94.5°F34.7°C 50.6°F10.3°C 23% 11.9 mph W19.2 kmh W 14.5 mph23.3 kmh 30.13 in1020.3 mb 0.00 in0.0 mm 0.00 in0.0 mm 0.00 in0.0 mm
02:19 PM 94.0°F34.4°C 51.3°F10.7°C 24% 11.1 mph NW17.9 kmh NW 14.3 mph23.0 kmh 30.14 in1020.7 mb 0.00 in0.0 mm 0.00 in0.0 mm 0.00 in0.0 mm
02:24 PM 93.1°F33.9°C 49.4°F9.7°C 23% 11.8 mph NW19.0 kmh NW 17.9 mph28.8 kmh 30.14 in1020.7 mb 0.00 in0.0 mm 0.00 in0.0 mm 0.00 in0.0 mm
02:29 PM 92.7°F33.7°C 50.2°F10.1°C 24% 10.9 mph NNW17.5 kmh NNW 17.9 mph28.8 kmh 30.14 in1020.7 mb 0.00 in0.0 mm 0.00 in0.0 mm 0.00 in0.0 mm
02:34 PM 92.5°F33.6°C 50.0°F10.0°C 24% 8.3 mph NW13.4 kmh NW 13.4 mph21.6 kmh 30.14 in1020.7 mb 0.00 in0.0 mm 0.00 in0.0 mm 0.00 in0.0 mm
02:39 PM 92.5°F33.6°C 50.0°F10.0°C 24% 7.7 mph NW12.4 kmh NW 10.1 mph16.3 kmh 30.13 in1020.3 mb 0.00 in0.0 mm 0.00 in0.0 mm 0.00 in0.0 mm
02:44 PM 92.7°F33.7°C 49.2°F9.6°C 23% 6.9 mph W11.1 kmh W 9.4 mph15.1 kmh 30.13 in1020.3 mb 0.00 in0.0 mm 0.00 in0.0 mm 0.00 in0.0 mm
02:49 PM 92.5°F33.6°C 51.2°F10.7°C 25% 9.3 mph WSW15.0 kmh WSW 13.4 mph21.6 kmh 30.13 in1020.3 mb 0.00 in0.0 mm 0.00 in0.0 mm 0.00 in0.0 mm
02:54 PM 91.8°F33.2°C 50.6°F10.3°C 25% 8.8 mph SW14.2 kmh SW 15.7 mph25.3 kmh 30.13 in1020.3 mb 0.00 in0.0 mm 0.00 in0.0 mm 0.00 in0.0 mm
03:00 PM 91.8°F33.2°C 49.5°F9.7°C 24% 4.0 mph W6.4 kmh W 15.7 mph25.3 kmh 30.12 in1020.0 mb 0.00 in0.0 mm 0.00 in0.0 mm 0.00 in0.0 mm
03:05 PM 92.3°F33.5°C 50.0°F10.0°C 24% 9.9 mph WSW15.9 kmh WSW 10.5 mph16.9 kmh 30.12 in1020.0 mb 0.00 in0.0 mm 0.00 in0.0 mm 0.00 in0.0 mm
03:10 PM 92.5°F33.6°C 51.2°F10.7°C 25% 6.9 mph WSW11.1 kmh WSW 10.5 mph16.9 kmh 30.12 in1020.0 mb 0.00 in0.0 mm 0.00 in0.0 mm 0.00 in0.0 mm
03:15 PM 92.7°F33.7°C 49.2°F9.6°C 23% 6.1 mph NW9.8 kmh NW 8.7 mph14.0 kmh 30.12 in1020.0 mb 0.00 in0.0 mm 0.00 in0.0 mm 0.00 in0.0 mm
03:19 PM 93.2°F34.0°C 49.6°F9.8°C 23% 7.2 mph NNW11.6 kmh NNW 10.5 mph16.9 kmh 30.12 in1020.0 mb 0.00 in0.0 mm 0.00 in0.0 mm 0.00 in0.0 mm
03:24 PM 93.6°F34.2°C 49.9°F9.9°C 23% 6.6 mph WSW10.6 kmh WSW 10.5 mph16.9 kmh 30.12 in1020.0 mb 0.00 in0.0 mm 0.00 in0.0 mm 0.00 in0.0 mm
03:29 PM 94.0°F34.4°C 50.1°F10.1°C 23% 6.2 mph NW10.0 kmh NW 9.8 mph15.8 kmh 30.12 in1020.0 mb 0.00 in0.0 mm 0.00 in0.0 mm 0.00 in0.0 mm
03:34 PM 94.0°F34.4°C 48.0°F8.9°C 21% 8.7 mph NW14.0 kmh NW 9.8 mph15.8 kmh 30.12 in1020.0 mb 0.00 in0.0 mm 0.00 in0.0 mm 0.00 in0.0 mm
03:39 PM 93.8°F34.3°C 47.8°F8.8°C 21% 6.9 mph NNW11.1 kmh NNW 9.6 mph15.4 kmh 30.12 in1020.0 mb 0.00 in0.0 mm 0.00 in0.0 mm 0.00 in0.0 mm
03:44 PM 93.6°F34.2°C 44.8°F7.1°C 19% 7.2 mph NNW11.6 kmh NNW 9.4 mph15.1 kmh 30.12 in1020.0 mb 0.00 in0.0 mm 0.00 in0.0 mm 0.00 in0.0 mm
03:49 PM 93.2°F34.0°C 47.3°F8.5°C 21% 15.1 mph NW24.3 kmh NW 15.7 mph25.3 kmh 30.12 in1020.0 mb 0.00 in0.0 mm 0.00 in0.0 mm 0.00 in0.0 mm
03:54 PM 92.5°F33.6°C 46.8°F8.2°C 21% 13.6 mph N21.9 kmh N 16.1 mph25.9 kmh 30.12 in1020.0 mb 0.00 in0.0 mm 0.00 in0.0 mm 0.00 in0.0 mm
04:00 PM 91.4°F33.0°C 47.0°F8.3°C 22% 15.0 mph N24.1 kmh N 16.3 mph26.2 kmh 30.12 in1020.0 mb 0.00 in0.0 mm 0.00 in0.0 mm 0.00 in0.0 mm
04:05 PM 91.1°F32.8°C 47.8°F8.8°C 23% 12.9 mph N20.8 kmh N 17.2 mph27.7 kmh 30.12 in1020.0 mb 0.00 in0.0 mm 0.00 in0.0 mm 0.00 in0.0 mm
04:10 PM 91.4°F33.0°C 47.0°F8.3°C 22% 11.9 mph N19.2 kmh N 17.2 mph27.7 kmh 30.11 in1019.6 mb 0.00 in0.0 mm 0.00 in0.0 mm 0.00 in0.0 mm
04:15 PM 91.6°F33.1°C 47.2°F8.4°C 22% 7.1 mph 11.4 kmh 15.9 mph25.6 kmh 30.11 in1019.6 mb 0.00 in0.0 mm 0.00 in0.0 mm 0.00 in0.0 mm
04:20 PM 92.2°F33.4°C 48.7°F9.3°C 23% 14.8 mph N23.8 kmh N 16.1 mph25.9 kmh 30.11 in1019.6 mb 0.00 in0.0 mm 0.00 in0.0 mm 0.00 in0.0 mm
04:25 PM 92.3°F33.5°C 48.9°F9.4°C 23% 12.9 mph N20.8 kmh N 16.1 mph25.9 kmh 30.11 in1019.6 mb 0.00 in0.0 mm 0.00 in0.0 mm 0.00 in0.0 mm
04:30 PM 93.4°F34.1°C 47.5°F8.6°C 21% 11.3 mph 18.2 kmh 15.0 mph24.1 kmh 30.11 in1019.6 mb 0.00 in0.0 mm 0.00 in0.0 mm 0.00 in0.0 mm
04:35 PM 93.8°F34.3°C 47.8°F8.8°C 21% 13.4 mph N21.6 kmh N 19.5 mph31.4 kmh 30.11 in1019.6 mb 0.00 in0.0 mm 0.00 in0.0 mm 0.00 in0.0 mm
04:40 PM 94.0°F34.4°C 48.0°F8.9°C 21% 9.9 mph 15.9 kmh 19.5 mph31.4 kmh 30.11 in1019.6 mb 0.00 in0.0 mm 0.00 in0.0 mm 0.00 in0.0 mm
04:45 PM 94.0°F34.4°C 48.0°F8.9°C 21% 19.3 mph NW31.1 kmh NW 20.8 mph33.5 kmh 30.11 in1019.6 mb 0.00 in0.0 mm 0.00 in0.0 mm 0.00 in0.0 mm
04:50 PM 92.7°F33.7°C 46.9°F8.3°C 21% 9.9 mph NW15.9 kmh NW 20.8 mph33.5 kmh 30.11 in1019.6 mb 0.00 in0.0 mm 0.00 in0.0 mm 0.00 in0.0 mm
04:55 PM 92.2°F33.4°C 46.5°F8.1°C 21% 10.9 mph 17.5 kmh 14.8 mph23.8 kmh 30.11 in1019.6 mb 0.00 in0.0 mm 0.00 in0.0 mm 0.00 in0.0 mm
05:00 PM 91.6°F33.1°C 47.2°F8.4°C 22% 11.1 mph NNE17.9 kmh NNE 13.9 mph22.4 kmh 30.11 in1019.6 mb 0.00 in0.0 mm 0.00 in0.0 mm 0.00 in0.0 mm
05:05 PM 91.3°F32.9°C 46.9°F8.3°C 22% 9.9 mph 15.9 kmh 14.5 mph23.3 kmh 30.10 in1019.3 mb 0.00 in0.0 mm 0.00 in0.0 mm 0.00 in0.0 mm
05:10 PM 91.4°F33.0°C 47.0°F8.3°C 22% 12.4 mph N20.0 kmh N 14.5 mph23.3 kmh 30.10 in1019.3 mb 0.00 in0.0 mm 0.00 in0.0 mm 0.00 in0.0 mm
05:15 PM 91.8°F33.2°C 47.4°F8.6°C 22% 11.4 mph NNW18.3 kmh NNW 14.5 mph23.3 kmh 30.10 in1019.3 mb 0.00 in0.0 mm 0.00 in0.0 mm 0.00 in0.0 mm
05:20 PM 91.6°F33.1°C 47.2°F8.4°C 22% 9.4 mph 15.1 kmh 14.5 mph23.3 kmh 30.10 in1019.3 mb 0.00 in0.0 mm 0.00 in0.0 mm 0.00 in0.0 mm
05:25 PM 91.3°F32.9°C 46.9°F8.3°C 22% 13.1 mph 21.1 kmh 13.6 mph21.9 kmh 30.10 in1019.3 mb 0.00 in0.0 mm 0.00 in0.0 mm 0.00 in0.0 mm
05:30 PM 90.9°F32.7°C 47.7°F8.7°C 23% 16.3 mph 26.2 kmh 18.6 mph29.9 kmh 30.10 in1019.3 mb 0.00 in0.0 mm 0.00 in0.0 mm 0.00 in0.0 mm
05:35 PM 90.7°F32.6°C 47.5°F8.6°C 23% 20.5 mph NNW33.0 kmh NNW 23.9 mph38.5 kmh 30.10 in1019.3 mb 0.00 in0.0 mm 0.00 in0.0 mm 0.00 in0.0 mm
05:40 PM 90.4°F32.4°C 47.3°F8.5°C 23% 10.5 mph N16.9 kmh N 23.9 mph38.5 kmh 30.10 in1019.3 mb 0.00 in0.0 mm 0.00 in0.0 mm 0.00 in0.0 mm
05:45 PM 89.6°F32.0°C 47.7°F8.7°C 24% 11.9 mph 19.2 kmh 16.3 mph26.2 kmh 30.10 in1019.3 mb 0.00 in0.0 mm 0.00 in0.0 mm 0.00 in0.0 mm
05:50 PM 89.5°F31.9°C 47.5°F8.6°C 24% 10.4 mph NNW16.7 kmh NNW 18.8 mph30.3 kmh 30.10 in1019.3 mb 0.00 in0.0 mm 0.00 in0.0 mm 0.00 in0.0 mm
05:55 PM 89.6°F32.0°C 48.8°F9.3°C 25% 12.2 mph 19.6 kmh 18.8 mph30.3 kmh 30.10 in1019.3 mb 0.00 in0.0 mm 0.00 in0.0 mm 0.00 in0.0 mm
06:01 PM 89.1°F31.7°C 48.3°F9.1°C 25% 14.3 mph N23.0 kmh N 16.6 mph26.7 kmh 30.10 in1019.3 mb 0.00 in0.0 mm 0.00 in0.0 mm 0.00 in0.0 mm
06:06 PM 88.6°F31.4°C 47.9°F8.8°C 25% 13.2 mph N21.2 kmh N 16.6 mph26.7 kmh 30.10 in1019.3 mb 0.00 in0.0 mm 0.00 in0.0 mm 0.00 in0.0 mm
06:10 PM 88.4°F31.3°C 47.7°F8.7°C 25% 10.6 mph N17.1 kmh N 16.6 mph26.7 kmh 30.10 in1019.3 mb 0.00 in0.0 mm 0.00 in0.0 mm 0.00 in0.0 mm
06:15 PM 88.6°F31.4°C 47.9°F8.8°C 25% 9.6 mph N15.4 kmh N 13.4 mph21.6 kmh 30.10 in1019.3 mb 0.00 in0.0 mm 0.00 in0.0 mm 0.00 in0.0 mm
06:20 PM 88.6°F31.4°C 47.9°F8.8°C 25% 10.1 mph NNW16.3 kmh NNW 12.5 mph20.1 kmh 30.10 in1019.3 mb 0.00 in0.0 mm 0.00 in0.0 mm 0.00 in0.0 mm
06:25 PM 88.6°F31.4°C 47.9°F8.8°C 25% 8.3 mph 13.4 kmh 12.5 mph20.1 kmh 30.10 in1019.3 mb 0.00 in0.0 mm 0.00 in0.0 mm 0.00 in0.0 mm
06:30 PM 88.4°F31.3°C 47.7°F8.7°C 25% 8.1 mph N13.0 kmh N 11.2 mph18.0 kmh 30.10 in1019.3 mb 0.00 in0.0 mm 0.00 in0.0 mm 0.00 in0.0 mm
06:35 PM 88.6°F31.4°C 47.9°F8.8°C 25% 9.0 mph N14.5 kmh N 10.7 mph17.2 kmh 30.10 in1019.3 mb 0.00 in0.0 mm 0.00 in0.0 mm 0.00 in0.0 mm
06:40 PM 89.1°F31.7°C 48.3°F9.1°C 25% 8.5 mph 13.7 kmh 14.3 mph23.0 kmh 30.10 in1019.3 mb 0.00 in0.0 mm 0.00 in0.0 mm 0.00 in0.0 mm
06:45 PM 89.6°F32.0°C 48.8°F9.3°C 25% 10.3 mph NE16.6 kmh NE 14.3 mph23.0 kmh 30.10 in1019.3 mb 0.00 in0.0 mm 0.00 in0.0 mm 0.00 in0.0 mm
06:50 PM 89.5°F31.9°C 48.6°F9.2°C 25% 5.2 mph N8.4 kmh N 11.2 mph18.0 kmh 30.10 in1019.3 mb 0.00 in0.0 mm 0.00 in0.0 mm 0.00 in0.0 mm
06:55 PM 89.3°F31.8°C 48.5°F9.2°C 25% 7.2 mph 11.6 kmh 11.2 mph18.0 kmh 30.10 in1019.3 mb 0.00 in0.0 mm 0.00 in0.0 mm 0.00 in0.0 mm
07:01 PM 89.1°F31.7°C 48.3°F9.1°C 25% 7.0 mph N11.3 kmh N 9.6 mph15.4 kmh 30.10 in1019.3 mb 0.00 in0.0 mm 0.00 in0.0 mm 0.00 in0.0 mm
07:06 PM 89.1°F31.7°C 48.3°F9.1°C 25% 7.9 mph 12.7 kmh 10.3 mph16.6 kmh 30.10 in1019.3 mb 0.00 in0.0 mm 0.00 in0.0 mm 0.00 in0.0 mm
07:11 PM 89.1°F31.7°C 48.3°F9.1°C 25% 7.3 mph 11.7 kmh 10.3 mph16.6 kmh 30.10 in1019.3 mb 0.00 in0.0 mm 0.00 in0.0 mm 0.00 in0.0 mm
07:16 PM 89.3°F31.8°C 48.5°F9.2°C 25% 3.5 mph 5.6 kmh 7.6 mph12.2 kmh 30.10 in1019.3 mb 0.00 in0.0 mm 0.00 in0.0 mm 0.00 in0.0 mm
07:20 PM 89.6°F32.0°C 48.8°F9.3°C 25% 6.3 mph N10.1 kmh N 7.6 mph12.2 kmh 30.10 in1019.3 mb 0.00 in0.0 mm 0.00 in0.0 mm 0.00 in0.0 mm
07:25 PM 89.8°F32.1°C 49.0°F9.4°C 25% 3.3 mph NNW5.3 kmh NNW 7.2 mph11.6 kmh 30.10 in1019.3 mb 0.00 in0.0 mm 0.00 in0.0 mm 0.00 in0.0 mm
07:30 PM 90.0°F32.2°C 49.1°F9.5°C 25% 3.7 mph NNW6.0 kmh NNW 4.7 mph7.6 kmh 30.10 in1019.3 mb 0.00 in0.0 mm 0.00 in0.0 mm 0.00 in0.0 mm
07:35 PM 89.8°F32.1°C 49.0°F9.4°C 25% 2.7 mph NNW4.3 kmh NNW 4.5 mph7.2 kmh 30.10 in1019.3 mb 0.00 in0.0 mm 0.00 in0.0 mm 0.00 in0.0 mm
07:40 PM 89.6°F32.0°C 48.8°F9.3°C 25% 2.4 mph NNW3.9 kmh NNW 3.4 mph5.5 kmh 30.11 in1019.6 mb 0.00 in0.0 mm 0.00 in0.0 mm 0.00 in0.0 mm
07:45 PM 89.5°F31.9°C 48.6°F9.2°C 25% 2.0 mph NNW3.2 kmh NNW 3.1 mph5.0 kmh 30.10 in1019.3 mb 0.00 in0.0 mm 0.00 in0.0 mm 0.00 in0.0 mm
07:50 PM 89.1°F31.7°C 48.3°F9.1°C 25% 1.1 mph NNW1.8 kmh NNW 2.7 mph4.3 kmh 30.11 in1019.6 mb 0.00 in0.0 mm 0.00 in0.0 mm 0.00 in0.0 mm
07:55 PM 88.6°F31.4°C 47.9°F8.8°C 25% 2.6 mph 4.2 kmh 2.7 mph4.3 kmh 30.11 in1019.6 mb 0.00 in0.0 mm 0.00 in0.0 mm 0.00 in0.0 mm
08:01 PM 88.0°F31.1°C 47.4°F8.6°C 25% 2.9 mph NNE4.7 kmh NNE 3.4 mph5.5 kmh 30.10 in1019.3 mb 0.00 in0.0 mm 0.00 in0.0 mm 0.00 in0.0 mm
08:06 PM 87.5°F30.8°C 47.0°F8.3°C 25% 4.0 mph NE6.4 kmh NE 4.3 mph6.9 kmh 30.11 in1019.6 mb 0.00 in0.0 mm 0.00 in0.0 mm 0.00 in0.0 mm
08:11 PM 86.6°F30.3°C 47.3°F8.5°C 26% 3.3 mph ENE5.3 kmh ENE 4.3 mph6.9 kmh 30.11 in1019.6 mb 0.00 in0.0 mm 0.00 in0.0 mm 0.00 in0.0 mm
08:16 PM 85.7°F29.8°C 46.5°F8.1°C 26% 2.5 mph NE4.0 kmh NE 3.6 mph5.8 kmh 30.11 in1019.6 mb 0.00 in0.0 mm 0.00 in0.0 mm 0.00 in0.0 mm
08:21 PM 85.0°F29.4°C 47.0°F8.3°C 27% 3.0 mph NE4.8 kmh NE 4.0 mph6.4 kmh 30.11 in1019.6 mb 0.00 in0.0 mm 0.00 in0.0 mm 0.00 in0.0 mm
08:26 PM 84.2°F29.0°C 47.3°F8.5°C 28% 5.8 mph NE9.3 kmh NE 6.3 mph10.1 kmh 30.11 in1019.6 mb 0.00 in0.0 mm 0.00 in0.0 mm 0.00 in0.0 mm
08:31 PM 83.5°F28.6°C 46.7°F8.2°C 28% 3.3 mph NNW5.3 kmh NNW 6.3 mph10.1 kmh 30.12 in1020.0 mb 0.00 in0.0 mm 0.00 in0.0 mm 0.00 in0.0 mm
08:36 PM 82.4°F28.0°C 45.8°F7.7°C 28% 2.2 mph NE3.5 kmh NE 5.6 mph9.0 kmh 30.12 in1020.0 mb 0.00 in0.0 mm 0.00 in0.0 mm 0.00 in0.0 mm
08:41 PM 81.7°F27.6°C 47.4°F8.6°C 30% 4.3 mph ENE6.9 kmh ENE 4.5 mph7.2 kmh 30.12 in1020.0 mb 0.00 in0.0 mm 0.00 in0.0 mm 0.00 in0.0 mm
08:45 PM 81.4°F27.4°C 47.0°F8.3°C 30% 2.7 mph ENE4.3 kmh ENE 4.5 mph7.2 kmh 30.12 in1020.0 mb 0.00 in0.0 mm 0.00 in0.0 mm 0.00 in0.0 mm
08:50 PM 81.0°F27.2°C 47.5°F8.6°C 31% 2.9 mph ENE4.7 kmh ENE 4.5 mph7.2 kmh 30.12 in1020.0 mb 0.00 in0.0 mm 0.00 in0.0 mm 0.00 in0.0 mm
08:55 PM 80.6°F27.0°C 47.3°F8.5°C 31% 2.5 mph NE4.0 kmh NE 4.3 mph6.9 kmh 30.12 in1020.0 mb 0.00 in0.0 mm 0.00 in0.0 mm 0.00 in0.0 mm
09:01 PM 80.3°F26.8°C 47.7°F8.7°C 32% 1.2 mph NE1.9 kmh NE 4.3 mph6.9 kmh 30.12 in1020.0 mb 0.00 in0.0 mm 0.00 in0.0 mm 0.00 in0.0 mm
09:06 PM 79.9°F26.6°C 47.3°F8.5°C 32% 0.9 mph NE1.4 kmh NE 2.0 mph3.2 kmh 30.12 in1020.0 mb 0.00 in0.0 mm 0.00 in0.0 mm 0.00 in0.0 mm
09:11 PM 79.4°F26.3°C 47.6°F8.7°C 33% 2.2 mph ENE3.5 kmh ENE 2.5 mph4.0 kmh 30.12 in1020.0 mb 0.00 in0.0 mm 0.00 in0.0 mm 0.00 in0.0 mm
09:16 PM 78.8°F26.0°C 47.9°F8.8°C 34% 4.0 mph NE6.4 kmh NE 4.9 mph7.9 kmh 30.12 in1020.0 mb 0.00 in0.0 mm 0.00 in0.0 mm 0.00 in0.0 mm
09:21 PM 78.3°F25.7°C 47.4°F8.6°C 34% 2.8 mph N4.5 kmh N 4.9 mph7.9 kmh 30.13 in1020.3 mb 0.00 in0.0 mm 0.00 in0.0 mm 0.00 in0.0 mm
09:26 PM 77.8°F25.4°C 47.8°F8.8°C 35% 1.7 mph NNW2.7 kmh NNW 3.4 mph5.5 kmh 30.13 in1020.3 mb 0.00 in0.0 mm 0.00 in0.0 mm 0.00 in0.0 mm
09:31 PM 77.2°F25.1°C 47.4°F8.6°C 35% 2.0 mph NNW3.2 kmh NNW 2.7 mph4.3 kmh 30.13 in1020.3 mb 0.00 in0.0 mm 0.00 in0.0 mm 0.00 in0.0 mm
09:36 PM 76.5°F24.7°C 45.9°F7.7°C 34% 1.6 mph NE2.6 kmh NE 4.0 mph6.4 kmh 30.13 in1020.3 mb 0.00 in0.0 mm 0.00 in0.0 mm 0.00 in0.0 mm
09:41 PM 75.6°F24.2°C 46.6°F8.1°C 36% 4.1 mph NE6.6 kmh NE 8.3 mph13.4 kmh 30.13 in1020.3 mb 0.00 in0.0 mm 0.00 in0.0 mm 0.00 in0.0 mm
09:46 PM 75.6°F24.2°C 47.3°F8.5°C 37% 2.2 mph 3.5 kmh 8.3 mph13.4 kmh 30.13 in1020.3 mb 0.00 in0.0 mm 0.00 in0.0 mm 0.00 in0.0 mm
09:51 PM 75.6°F24.2°C 47.3°F8.5°C 37% 1.5 mph NE2.4 kmh NE 2.9 mph4.7 kmh 30.13 in1020.3 mb 0.00 in0.0 mm 0.00 in0.0 mm 0.00 in0.0 mm
09:56 PM 75.6°F24.2°C 47.3°F8.5°C 37% 0.2 mph 0.3 kmh 1.6 mph2.6 kmh 30.13 in1020.3 mb 0.00 in0.0 mm 0.00 in0.0 mm 0.00 in0.0 mm
10:01 PM 75.6°F24.2°C 47.3°F8.5°C 37% 0.2 mph 0.3 kmh 1.6 mph2.6 kmh 30.13 in1020.3 mb 0.00 in0.0 mm 0.00 in0.0 mm 0.00 in0.0 mm
10:06 PM 75.2°F24.0°C 47.1°F8.4°C 37% 2.6 mph ESE4.2 kmh ESE 2.9 mph4.7 kmh 30.14 in1020.7 mb 0.00 in0.0 mm 0.00 in0.0 mm 0.00 in0.0 mm
10:11 PM 74.7°F23.7°C 46.5°F8.1°C 37% 1.1 mph N1.8 kmh N 2.9 mph4.7 kmh 30.14 in1020.7 mb 0.00 in0.0 mm 0.00 in0.0 mm 0.00 in0.0 mm
10:16 PM 73.8°F23.2°C 45.7°F7.6°C 37% 3.5 mph N5.6 kmh N 4.5 mph7.2 kmh 30.14 in1020.7 mb 0.00 in0.0 mm 0.00 in0.0 mm 0.00 in0.0 mm
10:21 PM 72.7°F22.6°C 45.5°F7.5°C 38% 5.3 mph 8.5 kmh 5.4 mph8.7 kmh 30.14 in1020.7 mb 0.00 in0.0 mm 0.00 in0.0 mm 0.00 in0.0 mm
10:26 PM 72.5°F22.5°C 46.2°F7.9°C 39% 6.6 mph 10.6 kmh 7.2 mph11.6 kmh 30.14 in1020.7 mb 0.00 in0.0 mm 0.00 in0.0 mm 0.00 in0.0 mm
10:31 PM 72.4°F22.4°C 46.0°F7.8°C 39% 1.6 mph NNE2.6 kmh NNE 7.2 mph11.6 kmh 30.15 in1021.0 mb 0.00 in0.0 mm 0.00 in0.0 mm 0.00 in0.0 mm
10:36 PM 72.2°F22.3°C 45.8°F7.7°C 39% Calm Calm 6.5 mph10.5 kmh 30.15 in1021.0 mb 0.00 in0.0 mm 0.00 in0.0 mm 0.00 in0.0 mm
10:41 PM 71.6°F22.0°C 45.4°F7.4°C 39% Calm Calm 0.2 mph0.3 kmh 30.15 in1021.0 mb 0.00 in0.0 mm 0.00 in0.0 mm 0.00 in0.0 mm
10:46 PM 71.3°F21.8°C 45.7°F7.6°C 40% Calm Calm 0.4 mph0.6 kmh 30.15 in1021.0 mb 0.00 in0.0 mm 0.00 in0.0 mm 0.00 in0.0 mm
10:51 PM 70.6°F21.4°C 45.1°F7.3°C 40% 2.1 mph WNW3.4 kmh WNW 2.2 mph3.5 kmh 30.15 in1021.0 mb 0.00 in0.0 mm 0.00 in0.0 mm 0.00 in0.0 mm
10:56 PM 69.8°F21.0°C 44.5°F6.9°C 40% Calm Calm 2.2 mph3.5 kmh 30.15 in1021.0 mb 0.00 in0.0 mm 0.00 in0.0 mm 0.00 in0.0 mm
11:01 PM 69.5°F20.8°C 44.1°F6.7°C 40% Calm Calm 2.2 mph3.5 kmh 30.16 in1021.3 mb 0.00 in0.0 mm 0.00 in0.0 mm 0.00 in0.0 mm
11:06 PM 69.1°F20.6°C 44.4°F6.9°C 41% Calm Calm -- 30.16 in1021.3 mb 0.00 in0.0 mm 0.00 in0.0 mm 0.00 in0.0 mm
11:11 PM 69.1°F20.6°C 45.0°F7.2°C 42% Calm Calm -- 30.16 in1021.3 mb 0.00 in0.0 mm 0.00 in0.0 mm 0.00 in0.0 mm
11:16 PM 68.9°F20.5°C 44.8°F7.1°C 42% 2.5 mph SW4.0 kmh SW 3.1 mph5.0 kmh 30.17 in1021.7 mb 0.00 in0.0 mm 0.00 in0.0 mm 0.00 in0.0 mm
11:21 PM 68.6°F20.3°C 44.6°F7.0°C 42% 1.8 mph SSW2.9 kmh SSW 3.6 mph5.8 kmh 30.17 in1021.7 mb 0.00 in0.0 mm 0.00 in0.0 mm 0.00 in0.0 mm
11:26 PM 68.0°F20.0°C 44.0°F6.7°C 42% 0.7 mph SSW1.1 kmh SSW 3.6 mph5.8 kmh 30.17 in1021.7 mb 0.00 in0.0 mm 0.00 in0.0 mm 0.00 in0.0 mm
11:31 PM 67.7°F19.8°C 44.3°F6.8°C 43% Calm Calm 2.0 mph3.2 kmh 30.17 in1021.7 mb 0.00 in0.0 mm 0.00 in0.0 mm 0.00 in0.0 mm
11:36 PM 67.7°F19.8°C 44.3°F6.8°C 43% 0.8 mph NNW1.3 kmh NNW 1.6 mph2.6 kmh 30.17 in1021.7 mb 0.00 in0.0 mm 0.00 in0.0 mm 0.00 in0.0 mm
11:41 PM 67.9°F19.9°C 44.5°F6.9°C 43% 2.9 mph E4.7 kmh E 4.5 mph7.2 kmh 30.17 in1021.7 mb 0.00 in0.0 mm 0.00 in0.0 mm 0.00 in0.0 mm
11:46 PM 67.7°F19.8°C 46.1°F7.8°C 46% 2.8 mph SSE4.5 kmh SSE 7.2 mph11.6 kmh 30.18 in1022.0 mb 0.00 in0.0 mm 0.00 in0.0 mm 0.00 in0.0 mm
11:51 PM 68.0°F20.0°C 45.8°F7.7°C 45% 2.9 mph W4.7 kmh W 7.2 mph11.6 kmh 30.18 in1022.0 mb 0.00 in0.0 mm 0.00 in0.0 mm 0.00 in0.0 mm
11:56 PM 69.1°F20.6°C 47.3°F8.5°C 46% 0.9 mph NW1.4 kmh NW 4.0 mph6.4 kmh 30.18 in1022.0 mb 0.00 in0.0 mm 0.00 in0.0 mm 0.00 in0.0 mm